Time;durP1;ratioP1;P1;durP2;ratioP2;P2;SDS_P1;SDS_P2;PMS_P1;PMS_P2;Temp;Humidity;BMP_temperature;BMP_pressure;BME280_temperature;BME280_humidity;BME280_pressure;Samples;Min_cycle;Max_cycle;Signal;HPM_P1;HPM_P2
2022/09/27 00:01:28;;;;;;;1.00;0.90;;;10.20;99.90;;;;;;6312721;22;21165;-95
2022/09/27 00:03:55;;;;;;;1.17;0.80;;;10.20;99.90;;;;;;6312805;22;20588;-95
2022/09/27 00:06:25;;;;;;;1.40;1.30;;;10.20;99.90;;;;;;6314207;22;20611;-95
2022/09/27 00:08:52;;;;;;;1.73;0.90;;;10.20;99.90;;;;;;6311012;22;20579;-95
2022/09/27 00:11:27;;;;;;;0.70;0.70;;;10.20;99.90;;;;;;6312256;22;20584;-95
2022/09/27 00:13:56;;;;;;;3.07;1.17;;;10.20;99.90;;;;;;6310861;22;21395;-94
2022/09/27 00:16:24;;;;;;;3.00;1.63;;;10.40;99.90;;;;;;6306328;22;20710;-93
2022/09/27 00:18:51;;;;;;;1.23;0.97;;;10.30;99.90;;;;;;6307301;22;20614;-94
2022/09/27 00:21:19;;;;;;;1.70;1.13;;;10.20;99.90;;;;;;6280043;22;20638;-95
2022/09/27 00:23:46;;;;;;;0.80;0.80;;;10.20;99.90;;;;;;6306268;22;20633;-94
2022/09/27 00:26:14;;;;;;;0.97;0.87;;;10.20;99.90;;;;;;6306592;22;20713;-94
2022/09/27 00:28:43;;;;;;;1.00;0.90;;;10.10;99.90;;;;;;6307591;22;20725;-94
2022/09/27 00:31:21;;;;;;;0.80;0.80;;;10.20;99.90;;;;;;6305703;22;20579;-94
2022/09/27 00:36:32;;;;;;;1.80;1.10;;;10.10;99.90;;;;;;6321756;22;20604;-94
2022/09/27 00:39:00;;;;;;;2.00;1.23;;;10.10;99.90;;;;;;6310969;22;20640;-95
2022/09/27 00:41:29;;;;;;;1.63;1.43;;;10.20;99.90;;;;;;6332084;22;20576;-94
2022/09/27 00:44:03;;;;;;;1.47;1.00;;;10.20;99.90;;;;;;6335281;22;20544;-94
2022/09/27 00:46:40;;;;;;;0.93;0.93;;;10.10;99.90;;;;;;6334526;22;20576;-94
2022/09/27 00:49:28;;;;;;;1.17;1.00;;;10.20;99.90;;;;;;6334331;22;20590;-95
2022/09/27 00:52:01;;;;;;;0.70;0.70;;;10.20;99.90;;;;;;6308218;22;20633;-94
2022/09/27 00:54:30;;;;;;;2.13;1.00;;;10.10;99.90;;;;;;6302969;22;20572;-94
2022/09/27 00:56:58;;;;;;;2.37;0.83;;;10.20;99.90;;;;;;6330815;22;20572;-95
2022/09/27 00:59:30;;;;;;;1.43;0.77;;;10.20;99.90;;;;;;6331620;22;20592;-96
2022/09/27 01:01:59;;;;;;;0.77;0.60;;;10.20;99.90;;;;;;6306022;22;20592;-95
2022/09/27 01:04:31;;;;;;;0.60;0.60;;;10.20;99.90;;;;;;6307398;22;20544;-96
2022/09/27 01:07:03;;;;;;;0.80;0.60;;;10.30;99.90;;;;;;6324744;22;20661;-94
2022/09/27 01:09:31;;;;;;;0.97;0.90;;;10.20;99.90;;;;;;6297587;22;20591;-94
2022/09/27 01:12:11;;;;;;;2.07;0.93;;;10.30;99.90;;;;;;6317355;22;20596;-95
2022/09/27 01:14:53;;;;;;;0.87;0.70;;;10.30;99.90;;;;;;6312915;22;20627;-93
2022/09/27 01:17:50;;;;;;;1.10;1.00;;;10.30;99.90;;;;;;6267049;22;20607;-95
2022/09/27 01:20:34;;;;;;;1.20;0.70;;;10.30;99.90;;;;;;6313308;22;20629;-96
2022/09/27 01:23:29;;;;;;;0.73;0.73;;;10.30;99.90;;;;;;6310712;22;20931;-92
2022/09/27 01:26:09;;;;;;;0.90;0.77;;;10.50;99.90;;;;;;6301143;22;21273;-92
2022/09/27 01:28:47;;;;;;;1.03;0.87;;;10.30;99.90;;;;;;6307911;22;20616;-92
2022/09/27 01:31:24;;;;;;;0.50;0.40;;;10.30;99.90;;;;;;6309469;22;20567;-92
2022/09/27 01:34:01;;;;;;;1.00;0.70;;;10.30;99.90;;;;;;6310450;22;20579;-92
2022/09/27 01:36:35;;;;;;;0.60;0.50;;;10.30;99.90;;;;;;6308961;22;20579;-94
2022/09/27 01:39:33;;;;;;;0.50;0.50;;;10.30;99.90;;;;;;6309770;22;20555;-93
2022/09/27 01:42:04;;;;;;;1.10;0.77;;;10.40;99.90;;;;;;6322150;22;20576;-93
2022/09/27 01:44:38;;;;;;;0.80;0.60;;;10.30;99.90;;;;;;6335565;22;20589;-95
2022/09/27 01:47:13;;;;;;;1.40;0.70;;;10.40;99.90;;;;;;6335667;22;20665;-95
2022/09/27 01:49:51;;;;;;;0.70;0.50;;;10.40;99.90;;;;;;6332197;22;20559;-93
2022/09/27 01:52:22;;;;;;;0.90;0.73;;;10.40;99.90;;;;;;6331321;22;20650;-94
2022/09/27 01:54:53;;;;;;;1.03;0.93;;;10.40;99.90;;;;;;6322883;22;20904;-93
2022/09/27 01:57:25;;;;;;;1.17;0.70;;;10.40;99.90;;;;;;6311516;22;20604;-94
2022/09/27 01:59:58;;;;;;;2.00;0.83;;;10.40;99.90;;;;;;6309726;22;20592;-92
2022/09/27 02:02:28;;;;;;;1.30;0.50;;;10.40;99.90;;;;;;6318911;22;20596;-92
2022/09/27 02:05:02;;;;;;;2.50;0.77;;;10.40;99.90;;;;;;6334379;22;20539;-93
2022/09/27 02:07:37;;;;;;;0.83;0.47;;;10.50;99.90;;;;;;6330760;22;20611;-94
2022/09/27 02:10:07;;;;;;;0.50;0.50;;;10.50;99.90;;;;;;6327468;22;20591;-93
2022/09/27 02:12:40;;;;;;;0.63;0.63;;;10.60;99.90;;;;;;6323232;22;20568;-95
2022/09/27 02:15:12;;;;;;;0.57;0.57;;;10.40;99.90;;;;;;6318052;22;20576;-93
2022/09/27 02:17:44;;;;;;;0.50;0.43;;;10.60;99.90;;;;;;6307719;22;20630;-93
2022/09/27 02:20:18;;;;;;;1.47;0.60;;;10.70;99.90;;;;;;6307989;22;20607;-93
2022/09/27 02:22:49;;;;;;;0.93;0.70;;;10.70;99.90;;;;;;6307763;22;20595;-93
2022/09/27 02:25:22;;;;;;;0.70;0.60;;;10.80;99.90;;;;;;6308024;22;20603;-93
2022/09/27 02:28:01;;;;;;;2.17;1.00;;;10.80;99.90;;;;;;6308153;22;20627;-93
2022/09/27 02:30:31;;;;;;;1.43;0.80;;;10.70;99.90;;;;;;6308828;22;20601;-94
2022/09/27 02:33:06;;;;;;;0.77;0.67;;;10.80;99.90;;;;;;6307790;22;20589;-95
2022/09/27 02:35:35;;;;;;;0.90;0.60;;;10.80;99.90;;;;;;6308603;22;20598;-95
2022/09/27 02:38:04;;;;;;;0.90;0.90;;;10.80;99.90;;;;;;6309440;22;20668;-95
2022/09/27 02:40:36;;;;;;;0.77;0.77;;;10.80;99.90;;;;;;6309711;22;20579;-95
2022/09/27 02:43:06;;;;;;;1.30;1.10;;;10.70;99.90;;;;;;6308390;22;20634;-95
2022/09/27 02:45:40;;;;;;;1.00;0.90;;;10.60;99.90;;;;;;6309870;22;20576;-95
2022/09/27 02:48:32;;;;;;;1.03;0.73;;;10.60;99.90;;;;;;6311421;22;21000;-95
2022/09/27 02:51:23;;;;;;;1.47;1.03;;;10.60;99.90;;;;;;6314172;22;20614;-95
2022/09/27 02:54:03;;;;;;;1.70;0.70;;;10.70;99.90;;;;;;6319317;22;20587;-96
2022/09/27 02:56:40;;;;;;;0.70;0.70;;;10.60;99.90;;;;;;6314312;22;20579;-96
2022/09/27 02:59:14;;;;;;;0.77;0.57;;;10.60;99.90;;;;;;6314509;22;20607;-96
2022/09/27 03:01:48;;;;;;;0.97;0.70;;;10.50;99.90;;;;;;6312046;22;20630;-96
2022/09/27 03:07:22;;;;;;;2.40;0.87;;;10.50;99.90;;;;;;6315436;22;20654;-96
2022/09/27 03:20:34;;;;;;;2.63;0.63;;;10.20;99.90;;;;;;6255385;23;20608;-96
2022/09/27 03:23:02;;;;;;;0.60;0.40;;;10.20;99.90;;;;;;6229408;23;20577;-96
2022/09/27 03:25:30;;;;;;;1.87;0.70;;;10.20;99.90;;;;;;6245860;22;20562;-96
2022/09/27 03:27:58;;;;;;;1.93;0.70;;;10.20;99.90;;;;;;6247648;22;20621;-96
2022/09/27 03:30:26;;;;;;;1.17;1.07;;;10.20;99.90;;;;;;6273439;22;20605;-95
2022/09/27 03:32:53;;;;;;;1.53;0.50;;;10.20;99.90;;;;;;6247975;22;20564;-95
2022/09/27 03:35:21;;;;;;;1.43;0.90;;;10.10;99.90;;;;;;6273463;22;20586;-95
2022/09/27 03:37:53;;;;;;;0.97;0.50;;;10.20;99.90;;;;;;6272573;22;20665;-96
2022/09/27 03:40:37;;;;;;;1.70;1.10;;;10.20;99.90;;;;;;6267028;22;20630;-96
2022/09/27 03:43:04;;;;;;;0.97;0.87;;;10.20;99.90;;;;;;6269054;23;20603;-95
2022/09/27 03:53:30;;;;;;;1.10;0.80;;;10.00;99.90;;;;;;6292453;22;20693;-96
2022/09/27 03:55:58;;;;;;;1.63;0.80;;;10.10;99.90;;;;;;6298774;22;20591;-96
2022/09/27 04:01:29;;;;;;;3.23;1.63;;;10.00;99.90;;;;;;6297103;22;20675;-95
2022/09/27 04:04:01;;;;;;;2.53;1.10;;;10.20;99.90;;;;;;6264983;22;20573;-94
2022/09/27 04:06:29;;;;;;;3.60;1.43;;;10.20;99.90;;;;;;6262361;22;20996;-95
2022/09/27 04:09:01;;;;;;;3.10;0.97;;;10.20;99.90;;;;;;6280352;22;20636;-94
2022/09/27 04:11:31;;;;;;;2.10;1.43;;;10.10;99.90;;;;;;6278558;22;20608;-94
2022/09/27 04:13:58;;;;;;;1.73;1.00;;;10.20;99.90;;;;;;6282793;22;20561;-94
2022/09/27 04:16:26;;;;;;;2.60;1.23;;;10.20;99.90;;;;;;6280088;22;20923;-94
2022/09/27 04:18:54;;;;;;;2.60;1.40;;;10.10;99.90;;;;;;6281481;22;20591;-95
2022/09/27 04:21:22;;;;;;;2.33;1.20;;;10.20;99.90;;;;;;6282341;22;20621;-93
2022/09/27 04:23:49;;;;;;;2.90;2.00;;;10.20;99.90;;;;;;6282243;22;20638;-93
2022/09/27 04:29:35;;;;;;;4.90;1.80;;;10.20;99.90;;;;;;6284828;22;20633;-96
2022/09/27 04:32:06;;;;;;;2.60;1.70;;;10.20;99.90;;;;;;6240094;23;20585;-95
2022/09/27 04:37:33;;;;;;;4.90;2.30;;;10.20;99.90;;;;;;6173520;23;20584;-95
2022/09/27 04:43:24;;;;;;;3.20;1.53;;;9.80;99.90;;;;;;6251156;23;20549;-96
2022/09/27 04:45:57;;;;;;;3.03;2.03;;;10.20;99.90;;;;;;6240599;22;20601;-95
2022/09/27 04:48:43;;;;;;;3.27;1.37;;;10.10;99.90;;;;;;6275133;22;20640;-96
2022/09/27 04:51:24;;;;;;;3.67;1.67;;;10.20;99.90;;;;;;6275191;22;20589;-95
2022/09/27 04:53:52;;;;;;;3.43;1.70;;;10.20;99.90;;;;;;6275415;22;20549;-96
2022/09/27 04:56:25;;;;;;;8.43;1.93;;;10.20;99.90;;;;;;6275272;22;20577;-95
2022/09/27 04:58:52;;;;;;;3.70;1.80;;;10.20;99.90;;;;;;6268769;22;20624;-95
2022/09/27 05:01:21;;;;;;;4.57;2.37;;;10.20;99.90;;;;;;6258726;23;20573;-96
2022/09/27 05:03:49;;;;;;;3.33;1.50;;;10.30;99.90;;;;;;6258696;23;20672;-94
2022/09/27 05:06:16;;;;;;;2.63;1.77;;;10.30;99.90;;;;;;6252944;23;21109;-95
2022/09/27 05:08:44;;;;;;;3.40;2.00;;;10.20;99.90;;;;;;6251840;23;20645;-94
2022/09/27 05:11:18;;;;;;;3.30;1.67;;;10.20;99.90;;;;;;6252959;23;20907;-94
2022/09/27 05:13:46;;;;;;;6.37;4.70;;;10.20;99.90;;;;;;6227250;23;20596;-94
2022/09/27 05:16:13;;;;;;;5.43;3.57;;;10.20;99.90;;;;;;6252414;23;20643;-95
2022/09/27 05:18:55;;;;;;;6.20;3.90;;;10.30;99.90;;;;;;6260560;23;20613;-94
2022/09/27 05:21:22;;;;;;;5.63;2.43;;;10.20;99.90;;;;;;6256800;23;20726;-96
2022/09/27 05:23:51;;;;;;;3.10;2.67;;;10.20;99.90;;;;;;6255419;23;21184;-96
2022/09/27 05:26:18;;;;;;;4.93;2.00;;;10.20;99.90;;;;;;6257495;23;20624;-96
2022/09/27 05:28:46;;;;;;;4.47;2.20;;;10.20;99.90;;;;;;6262679;22;20624;-96
2022/09/27 05:31:25;;;;;;;3.30;1.40;;;10.10;99.90;;;;;;6286693;22;20612;-96
2022/09/27 05:33:59;;;;;;;3.20;1.60;;;10.20;99.90;;;;;;6293567;22;20602;-96
2022/09/27 05:36:29;;;;;;;2.13;1.30;;;10.10;99.90;;;;;;6289620;22;20568;-95
2022/09/27 05:38:56;;;;;;;3.93;2.00;;;10.20;99.90;;;;;;6287837;22;20625;-95
2022/09/27 05:41:24;;;;;;;3.33;1.63;;;10.20;99.90;;;;;;6281841;22;20584;-94
2022/09/27 05:43:51;;;;;;;2.87;2.00;;;10.20;99.90;;;;;;6279492;22;20580;-94
2022/09/27 05:46:19;;;;;;;4.40;1.83;;;10.20;99.90;;;;;;6276015;22;20585;-95
2022/09/27 05:48:47;;;;;;;2.30;1.87;;;10.20;99.90;;;;;;6277121;22;20645;-95
2022/09/27 05:51:15;;;;;;;2.87;1.43;;;10.20;99.90;;;;;;6283362;22;20588;-94
2022/09/27 05:53:42;;;;;;;3.80;2.17;;;9.90;99.90;;;;;;6286241;22;20701;-95
2022/09/27 05:56:09;;;;;;;4.60;1.67;;;10.30;99.90;;;;;;6289155;22;20577;-95
2022/09/27 05:58:36;;;;;;;4.47;1.97;;;10.20;99.90;;;;;;6296839;22;20619;-95
2022/09/27 06:01:07;;;;;;;1.77;1.30;;;10.20;99.90;;;;;;6291010;22;20642;-95
2022/09/27 06:03:35;;;;;;;2.97;1.57;;;10.20;99.90;;;;;;6281780;22;20588;-96
2022/09/27 06:06:04;;;;;;;1.60;1.40;;;10.30;99.90;;;;;;6282936;22;20580;-96
2022/09/27 06:08:35;;;;;;;3.77;1.73;;;10.20;99.90;;;;;;6284526;22;20636;-95
2022/09/27 06:11:05;;;;;;;3.17;1.53;;;10.10;99.90;;;;;;6283165;22;20584;-96
2022/09/27 06:13:35;;;;;;;2.80;1.47;;;10.00;99.90;;;;;;6285513;22;20606;-96
2022/09/27 06:16:03;;;;;;;3.77;2.03;;;10.10;99.90;;;;;;6282723;22;20868;-95
2022/09/27 06:18:30;;;;;;;2.97;1.87;;;10.00;99.90;;;;;;6281326;22;20662;-95
2022/09/27 06:21:00;;;;;;;3.47;2.03;;;10.10;99.90;;;;;;6294815;22;20573;-95
2022/09/27 06:23:31;;;;;;;4.70;2.70;;;10.20;99.90;;;;;;6298717;22;20568;-94
2022/09/27 06:26:02;;;;;;;2.77;1.57;;;10.20;99.90;;;;;;6294788;22;20576;-95
2022/09/27 06:28:31;;;;;;;4.40;1.27;;;10.10;99.90;;;;;;6297728;22;20686;-95
2022/09/27 06:31:00;;;;;;;3.73;1.37;;;10.00;99.90;;;;;;6299168;22;20585;-93
2022/09/27 06:33:28;;;;;;;2.13;1.30;;;10.10;99.90;;;;;;6287006;22;20580;-91
2022/09/27 06:35:55;;;;;;;2.10;1.87;;;10.10;99.90;;;;;;6285870;22;20565;-93
2022/09/27 06:38:23;;;;;;;2.23;1.37;;;10.10;99.90;;;;;;6292100;22;20613;-94
2022/09/27 06:40:52;;;;;;;3.87;1.60;;;10.20;99.90;;;;;;6284267;22;20766;-94
2022/09/27 06:43:23;;;;;;;4.50;1.90;;;10.20;99.90;;;;;;6283742;22;20607;-93
2022/09/27 06:45:51;;;;;;;1.57;1.37;;;10.30;99.90;;;;;;6282719;22;20584;-94
2022/09/27 06:48:18;;;;;;;2.10;1.40;;;10.30;99.90;;;;;;6286653;22;20624;-94
2022/09/27 06:50:57;;;;;;;1.93;1.80;;;10.40;99.90;;;;;;6287793;22;20569;-96
2022/09/27 06:53:34;;;;;;;2.23;1.73;;;10.40;99.90;;;;;;6289910;22;20648;-95
2022/09/27 06:56:20;;;;;;;1.30;1.07;;;10.30;99.90;;;;;;6286595;22;20646;-96
2022/09/27 07:02:12;;;;;;;2.40;1.07;;;10.40;99.90;;;;;;6179901;23;20560;-96
2022/09/27 07:04:51;;;;;;;1.70;1.27;;;10.50;99.90;;;;;;6178868;23;20613;-94
2022/09/27 07:07:29;;;;;;;2.60;1.23;;;10.50;99.90;;;;;;6264644;22;20699;-95
2022/09/27 07:09:58;;;;;;;3.50;1.10;;;10.50;99.90;;;;;;6276747;22;20984;-90
2022/09/27 07:12:25;;;;;;;5.43;2.37;;;10.60;99.90;;;;;;6279513;22;20589;-92
2022/09/27 07:14:54;;;;;;;2.07;1.27;;;10.70;99.90;;;;;;6274714;22;20604;-92
2022/09/27 07:17:22;;;;;;;1.40;0.97;;;10.50;99.90;;;;;;6274292;22;20593;-91
2022/09/27 07:19:49;;;;;;;1.00;0.70;;;10.50;99.90;;;;;;6275073;22;20600;-93
2022/09/27 07:22:16;;;;;;;0.97;0.80;;;10.80;99.90;;;;;;6274766;22;20604;-90
2022/09/27 07:24:43;;;;;;;0.93;0.70;;;10.90;99.90;;;;;;6276024;22;20681;-91
2022/09/27 07:27:11;;;;;;;1.37;0.47;;;10.70;99.90;;;;;;6278682;22;20613;-91
2022/09/27 07:29:38;;;;;;;2.17;0.50;;;10.70;99.90;;;;;;6290920;22;21187;-92
2022/09/27 07:32:11;;;;;;;1.17;1.00;;;10.70;99.90;;;;;;6292578;22;20584;-92
2022/09/27 07:34:38;;;;;;;0.97;0.70;;;10.70;99.90;;;;;;6296036;22;20691;-92
2022/09/27 07:37:05;;;;;;;1.17;0.70;;;10.80;99.90;;;;;;6266771;22;20593;-94
2022/09/27 07:39:32;;;;;;;0.80;0.70;;;10.80;99.90;;;;;;6274657;22;20604;-92
2022/09/27 07:42:01;;;;;;;0.60;0.50;;;10.60;99.90;;;;;;6259991;22;20560;-92
2022/09/27 07:44:29;;;;;;;0.43;0.40;;;10.70;99.90;;;;;;6284386;22;20575;-92
2022/09/27 07:46:56;;;;;;;1.33;0.60;;;10.80;99.90;;;;;;6273801;22;21298;-93
2022/09/27 07:49:25;;;;;;;0.50;0.40;;;10.60;99.90;;;;;;6272417;22;20670;-93
2022/09/27 07:51:51;;;;;;;2.00;0.70;;;10.50;99.90;;;;;;6274205;22;20616;-92
2022/09/27 07:54:19;;;;;;;0.57;0.57;;;10.60;99.90;;;;;;6271976;22;20596;-92
2022/09/27 07:56:46;;;;;;;1.27;0.90;;;10.70;99.90;;;;;;6275043;22;20936;-92
2022/09/27 07:59:13;;;;;;;1.53;1.23;;;10.70;99.90;;;;;;6276683;22;20948;-92
2022/09/27 08:01:41;;;;;;;0.70;0.70;;;10.80;99.90;;;;;;6248819;22;20603;-91
2022/09/27 08:04:09;;;;;;;0.60;0.60;;;10.70;99.90;;;;;;6276256;22;20521;-93
2022/09/27 08:06:37;;;;;;;1.60;0.43;;;10.90;99.90;;;;;;6274408;22;20581;-93
2022/09/27 08:09:08;;;;;;;3.67;0.80;;;10.80;99.90;;;;;;6277842;22;20970;-92
2022/09/27 08:11:36;;;;;;;1.17;0.50;;;10.90;99.90;;;;;;6271250;22;20659;-93
2022/09/27 08:14:04;;;;;;;0.50;0.50;;;11.00;99.90;;;;;;6273417;22;20705;-92
2022/09/27 08:16:35;;;;;;;2.00;0.53;;;10.80;99.90;;;;;;6273725;22;21069;-92
2022/09/27 08:19:02;;;;;;;0.63;0.50;;;10.80;99.90;;;;;;6273683;22;20603;-92
2022/09/27 08:21:29;;;;;;;1.33;0.50;;;10.80;99.90;;;;;;6277768;22;20571;-91
2022/09/27 08:23:59;;;;;;;0.50;0.40;;;11.00;99.90;;;;;;6273945;22;20514;-91
2022/09/27 08:26:33;;;;;;;1.60;0.60;;;11.10;99.90;;;;;;6271690;22;21120;-92
2022/09/27 08:29:00;;;;;;;1.93;0.40;;;11.10;99.90;;;;;;6244676;22;20655;-92
2022/09/27 08:31:27;;;;;;;0.93;0.70;;;11.10;99.90;;;;;;6272114;22;20604;-92
2022/09/27 08:33:55;;;;;;;0.70;0.50;;;11.00;99.90;;;;;;6272878;22;21089;-90
2022/09/27 08:36:22;;;;;;;1.47;0.40;;;11.10;99.90;;;;;;6273539;22;20545;-93
2022/09/27 08:38:50;;;;;;;1.40;0.70;;;11.20;99.90;;;;;;6273625;22;20609;-94
2022/09/27 08:41:27;;;;;;;3.20;0.47;;;11.20;99.90;;;;;;6273719;22;20604;-93
2022/09/27 08:44:09;;;;;;;1.17;0.53;;;11.10;99.90;;;;;;6224380;22;20634;-94
2022/09/27 08:46:48;;;;;;;1.13;0.67;;;11.30;99.90;;;;;;6280699;22;20576;-93
2022/09/27 08:49:41;;;;;;;0.63;0.40;;;11.30;99.90;;;;;;6259545;22;20712;-94
2022/09/27 08:52:16;;;;;;;0.73;0.60;;;11.30;99.90;;;;;;6301911;22;20557;-93
2022/09/27 08:54:49;;;;;;;5.90;1.17;;;11.50;99.90;;;;;;6300928;22;20593;-93
2022/09/27 09:00:17;;;;;;;1.80;0.90;;;11.40;99.90;;;;;;6299742;22;20617;-95
2022/09/27 09:05:33;;;;;;;4.23;0.77;;;11.60;99.90;;;;;;6284431;22;20596;-93
2022/09/27 09:08:19;;;;;;;1.00;0.43;;;11.40;99.90;;;;;;6280835;22;20638;-93
2022/09/27 09:14:08;;;;;;;1.67;0.70;;;11.40;99.90;;;;;;6285915;22;21395;-94
2022/09/27 09:17:01;;;;;;;0.50;0.50;;;11.50;99.90;;;;;;6284971;22;20591;-91
2022/09/27 09:19:53;;;;;;;1.93;0.70;;;11.70;99.90;;;;;;6281910;22;20604;-94
2022/09/27 09:22:38;;;;;;;0.90;0.60;;;11.80;99.90;;;;;;6277515;22;20588;-95
2022/09/27 09:25:21;;;;;;;1.40;0.83;;;12.00;99.90;;;;;;6276748;22;20556;-95
2022/09/27 09:28:02;;;;;;;1.23;0.60;;;12.10;99.90;;;;;;6262338;22;20587;-94
2022/09/27 09:30:47;;;;;;;0.80;0.70;;;12.20;99.90;;;;;;6256815;22;20652;-92
2022/09/27 09:33:23;;;;;;;1.90;0.83;;;12.00;99.90;;;;;;6276630;22;20577;-93
2022/09/27 09:35:57;;;;;;;5.60;0.87;;;12.20;99.90;;;;;;6275127;22;21256;-92
2022/09/27 09:38:30;;;;;;;1.47;0.70;;;12.30;99.90;;;;;;6279824;22;20576;-94
2022/09/27 09:41:03;;;;;;;0.80;0.63;;;12.60;99.90;;;;;;6249934;22;20626;-91
2022/09/27 09:43:35;;;;;;;0.60;0.60;;;13.10;99.90;;;;;;6275429;22;20862;-93
2022/09/27 09:46:10;;;;;;;1.20;0.60;;;13.30;99.90;;;;;;6283081;22;20569;-96
2022/09/27 09:48:49;;;;;;;6.10;1.00;;;12.90;99.90;;;;;;6293878;22;20592;-96
2022/09/27 09:52:10;;;;;;;2.00;0.77;;;12.80;99.90;;;;;;6300216;22;20614;-96
2022/09/27 09:58:14;;;;;;;1.20;0.50;;;12.70;99.90;;;;;;6302241;22;20485;-96
2022/09/27 10:04:27;;;;;;;4.10;0.60;;;12.70;99.90;;;;;;6267372;23;20477;-96
2022/09/27 10:06:58;;;;;;;1.90;1.20;;;12.90;99.90;;;;;;6271793;22;20564;-94
2022/09/27 10:09:27;;;;;;;2.77;0.70;;;13.60;99.90;;;;;;6269096;22;20636;-94
2022/09/27 10:14:59;;;;;;;1.07;0.80;;;14.90;99.90;;;;;;6264659;22;20605;-94
2022/09/27 10:17:35;;;;;;;3.00;0.90;;;14.70;99.90;;;;;;6268505;23;20573;-94
2022/09/27 10:20:07;;;;;;;1.70;0.70;;;14.40;99.90;;;;;;6245916;22;20624;-93
2022/09/27 10:22:38;;;;;;;2.50;1.30;;;14.00;99.90;;;;;;6245134;23;20599;-93
2022/09/27 10:25:08;;;;;;;1.90;0.80;;;14.00;99.90;;;;;;6241331;23;20649;-92
2022/09/27 10:27:40;;;;;;;1.33;1.07;;;14.50;99.90;;;;;;6242739;23;20550;-91
2022/09/27 10:30:32;;;;;;;2.80;1.03;;;15.80;99.90;;;;;;6243404;22;20820;-93
2022/09/27 10:33:03;;;;;;;0.80;0.70;;;15.50;99.90;;;;;;6212694;23;21133;-93
2022/09/27 10:35:38;;;;;;;3.47;1.00;;;14.70;99.90;;;;;;6244374;23;20589;-93
2022/09/27 10:38:24;;;;;;;1.93;1.00;;;14.00;99.90;;;;;;6245371;23;20510;-93
2022/09/27 10:41:15;;;;;;;1.13;0.87;;;13.80;99.90;;;;;;6245662;22;20605;-93
2022/09/27 10:43:42;;;;;;;1.53;0.70;;;13.60;99.90;;;;;;6253409;23;20618;-93
2022/09/27 10:46:23;;;;;;;3.57;0.90;;;13.40;99.90;;;;;;6261163;23;20626;-94
2022/09/27 10:49:09;;;;;;;2.57;1.50;;;12.90;99.90;;;;;;6250613;22;20585;-93
2022/09/27 10:51:41;;;;;;;3.60;1.20;;;12.70;99.90;;;;;;6245135;23;21019;-93
2022/09/27 10:54:20;;;;;;;0.90;0.60;;;13.10;99.90;;;;;;6244528;23;20585;-92
2022/09/27 10:56:56;;;;;;;2.30;1.20;;;13.20;99.90;;;;;;6245532;23;20570;-92
2022/09/27 10:59:24;;;;;;;1.30;1.20;;;13.50;99.90;;;;;;6248873;22;20601;-92
2022/09/27 11:01:53;;;;;;;2.10;1.30;;;13.70;99.90;;;;;;6280703;22;20553;-93
2022/09/27 11:04:24;;;;;;;2.60;0.80;;;14.00;99.90;;;;;;6284815;22;21029;-93
2022/09/27 11:07:14;;;;;;;1.57;0.97;;;13.80;99.90;;;;;;6286326;22;20611;-95
2022/09/27 11:09:49;;;;;;;2.60;1.03;;;13.80;99.90;;;;;;6253106;22;20697;-94
2022/09/27 11:12:19;;;;;;;2.77;1.20;;;13.70;99.90;;;;;;6289454;22;20596;-92
2022/09/27 11:14:57;;;;;;;1.67;0.80;;;13.50;99.90;;;;;;6302464;22;20600;-94
2022/09/27 11:17:35;;;;;;;2.60;0.80;;;13.50;99.90;;;;;;6302999;22;20525;-95
2022/09/27 11:20:28;;;;;;;2.23;1.80;;;13.60;99.90;;;;;;6301928;22;20611;-94
2022/09/27 11:23:30;;;;;;;2.93;0.80;;;13.10;99.90;;;;;;6294173;22;20549;-95
2022/09/27 11:26:39;;;;;;;1.23;1.10;;;13.30;99.90;;;;;;6277482;22;20596;-95
2022/09/27 11:29:22;;;;;;;2.53;1.20;;;13.30;99.90;;;;;;6279814;22;20631;-94
2022/09/27 11:32:08;;;;;;;0.90;0.80;;;13.50;99.90;;;;;;6285785;22;20587;-94
2022/09/27 11:41:23;;;;;;;0.67;0.67;;;13.40;99.90;;;;;;6280027;22;20627;-93
2022/09/27 11:44:26;;;;;;;2.20;0.70;;;13.40;99.90;;;;;;6275788;22;20603;-93
2022/09/27 11:57:21;;;;;;;1.23;0.80;;;13.00;99.90;;;;;;6272083;22;20622;-96
2022/09/27 12:00:22;;;;;;;3.90;0.97;;;13.00;99.90;;;;;;6297268;22;20636;-93
2022/09/27 12:09:45;;;;;;;1.33;0.70;;;13.10;99.90;;;;;;6172081;22;20619;-94
2022/09/27 12:12:20;;;;;;;1.53;1.17;;;13.20;99.90;;;;;;6292903;22;20596;-94
2022/09/27 12:14:52;;;;;;;3.73;0.77;;;13.50;99.90;;;;;;6293993;22;20621;-95
2022/09/27 12:18:11;;;;;;;0.93;0.90;;;13.40;99.90;;;;;;6294541;22;20704;-95
2022/09/27 12:20:59;;;;;;;2.47;0.80;;;13.50;99.90;;;;;;6284392;22;20593;-94
2022/09/27 12:23:38;;;;;;;0.73;0.53;;;13.10;99.90;;;;;;6280620;22;20635;-94
2022/09/27 12:26:09;;;;;;;1.43;0.47;;;12.80;99.90;;;;;;6277451;22;20659;-93
2022/09/27 12:28:54;;;;;;;1.90;0.50;;;12.00;99.90;;;;;;6287563;22;20614;-93
2022/09/27 12:32:10;;;;;;;0.80;0.63;;;11.80;99.90;;;;;;6301107;22;20652;-95
2022/09/27 12:35:09;;;;;;;0.60;0.50;;;11.40;99.90;;;;;;6301995;22;20521;-96
2022/09/27 12:38:03;;;;;;;1.40;1.30;;;11.10;99.90;;;;;;6274814;22;20625;-95
2022/09/27 12:40:51;;;;;;;1.00;0.40;;;11.10;99.90;;;;;;6260687;23;20615;-90
2022/09/27 12:43:22;;;;;;;1.53;0.50;;;11.00;99.90;;;;;;6266240;22;20614;-94
2022/09/27 12:51:14;;;;;;;3.50;0.60;;;10.80;99.90;;;;;;6238345;22;20647;-95
2022/09/27 12:54:13;;;;;;;0.60;0.50;;;11.00;99.90;;;;;;6293096;22;20898;-95
2022/09/27 12:57:00;;;;;;;0.73;0.50;;;11.10;99.90;;;;;;6262036;22;20631;-95
2022/09/27 12:59:50;;;;;;;1.40;0.40;;;11.20;99.90;;;;;;6291410;22;20703;-95
2022/09/27 13:02:44;;;;;;;1.13;0.40;;;11.10;99.90;;;;;;6293502;22;20628;-96
2022/09/27 13:05:38;;;;;;;1.77;0.53;;;11.00;99.90;;;;;;6291075;22;20620;-96
2022/09/27 13:08:31;;;;;;;1.60;0.50;;;11.00;99.90;;;;;;6291550;22;20592;-92
2022/09/27 13:11:10;;;;;;;2.13;0.90;;;10.90;99.90;;;;;;6289602;22;20690;-94
2022/09/27 13:13:39;;;;;;;1.10;0.70;;;11.50;99.90;;;;;;6287284;22;20572;-93
2022/09/27 13:16:09;;;;;;;1.43;0.80;;;11.80;99.90;;;;;;6290398;22;20676;-94
2022/09/27 13:19:00;;;;;;;2.07;0.70;;;11.90;99.90;;;;;;6284221;22;21057;-91
2022/09/27 13:22:01;;;;;;;1.03;0.47;;;12.20;99.90;;;;;;6280021;22;20699;-93
2022/09/27 13:24:55;;;;;;;1.17;0.60;;;12.00;99.90;;;;;;6277722;22;20627;-93
2022/09/27 13:27:46;;;;;;;1.90;0.63;;;12.30;99.90;;;;;;6279366;22;20881;-91
2022/09/27 13:30:45;;;;;;;0.80;0.70;;;12.50;99.90;;;;;;6287824;22;20633;-91
2022/09/27 13:33:44;;;;;;;5.33;1.03;;;12.00;99.90;;;;;;6212279;22;21342;-91
2022/09/27 13:39:10;;;;;;;1.43;0.57;;;12.30;99.90;;;;;;6296003;22;20727;-95
2022/09/27 13:47:53;;;;;;;1.90;0.73;;;12.10;99.90;;;;;;6268297;22;20721;-94
2022/09/27 13:50:27;;;;;;;0.70;0.70;;;11.90;99.90;;;;;;6272636;22;20641;-95
2022/09/27 13:53:22;;;;;;;1.30;0.80;;;11.80;99.90;;;;;;6272698;22;20573;-95
2022/09/27 13:55:51;;;;;;;1.07;1.07;;;11.40;99.90;;;;;;6269501;23;20657;-94
2022/09/27 13:58:34;;;;;;;1.97;0.57;;;11.40;99.90;;;;;;6264417;22;20617;-93
2022/09/27 14:01:15;;;;;;;1.73;0.90;;;11.40;99.90;;;;;;6260105;23;20661;-94
2022/09/27 14:03:55;;;;;;;0.73;0.73;;;11.40;99.90;;;;;;6258661;22;20602;-95
2022/09/27 14:06:29;;;;;;;0.60;0.60;;;11.60;99.90;;;;;;6263714;22;20652;-95
2022/09/27 14:09:17;;;;;;;0.90;0.70;;;11.80;99.90;;;;;;6269575;22;20586;-95
2022/09/27 14:11:56;;;;;;;2.37;0.80;;;12.00;99.90;;;;;;6263495;23;20626;-96
2022/09/27 14:14:35;;;;;;;1.20;0.60;;;12.20;99.90;;;;;;6254611;22;20655;-95
2022/09/27 14:22:36;;;;;;;1.30;0.97;;;12.00;99.90;;;;;;6263344;22;20628;-95
2022/09/27 14:28:03;;;;;;;1.77;0.70;;;11.20;99.90;;;;;;6246980;23;20582;-95
2022/09/27 14:30:41;;;;;;;2.13;1.00;;;10.80;99.90;;;;;;6251899;22;21251;-94
2022/09/27 14:33:28;;;;;;;2.23;1.03;;;10.60;99.90;;;;;;6206080;23;20680;-93
2022/09/27 14:38:42;;;;;;;1.60;1.10;;;10.40;99.90;;;;;;6255207;23;20506;-94
2022/09/27 14:41:31;;;;;;;1.10;0.83;;;10.10;99.90;;;;;;6256048;22;20602;-96
2022/09/27 14:50:02;;;;;;;2.60;1.33;;;11.00;99.90;;;;;;6249011;22;20625;-95
2022/09/27 14:52:33;;;;;;;1.33;1.23;;;10.80;99.90;;;;;;6249257;23;21066;-93
2022/09/27 14:58:25;;;;;;;1.30;1.20;;;11.20;99.90;;;;;;6252162;23;20660;-94
2022/09/27 15:00:59;;;;;;;2.60;1.20;;;11.30;99.90;;;;;;6252321;22;20614;-95
2022/09/27 15:03:30;;;;;;;1.43;1.20;;;11.30;99.90;;;;;;6252675;23;21091;-94
2022/09/27 15:13:53;;;;;;;0.73;0.70;;;12.40;99.90;;;;;;6192162;22;21374;-95
2022/09/27 15:16:36;;;;;;;0.70;0.70;;;13.20;99.90;;;;;;6255746;23;20590;-96
2022/09/27 15:19:17;;;;;;;4.70;2.27;;;14.30;99.90;;;;;;6266948;23;20590;-95
2022/09/27 15:25:16;;;;;;;4.17;3.80;;;14.20;99.90;;;;;;6264438;23;20580;-96
2022/09/27 15:27:52;;;;;;;1.20;1.10;;;13.40;99.90;;;;;;6230572;23;20576;-96
2022/09/27 15:30:27;;;;;;;2.03;1.13;;;13.20;99.90;;;;;;6225198;23;20605;-94
2022/09/27 15:32:56;;;;;;;6.90;6.20;;;13.40;99.90;;;;;;6250517;23;20613;-95
2022/09/27 15:35:27;;;;;;;2.20;1.60;;;12.80;99.90;;;;;;6249908;23;20601;-96
2022/09/27 15:38:31;;;;;;;0.80;0.70;;;13.10;99.90;;;;;;6254771;23;20621;-96